Disclaimer

Please do not use the information listed here in-flight or in-navigation, as they are not provided to us by the airports but are provided by volunteers, so they might be outdated.

Search


Regions


Airport information page

Radio informations:
DONAU TWR - 122.1 MHz
DONAU RADAR - 123.3 MHz
MUNCHEN CON - 136.525 MHz

Airport informations:
Latitude: 48° 42' 39.60" N
Longitude: 011° 12' 41.40" E
Elevation: 1249 feet - 381 meters
Operating hours: Remarks
Operating agency: Military
Timezone: UTC+1(+2DT) - Last Sunday in March to last Sunday in October
Fuel: JP-8, SemiKeroscene MIL Spec T-83133, without icing inhibitor

Runway information:
09/27 - 8005 x 98 feet< - >2440 x 30 meters

Recent METARs:
ETSN 211620Z 05003KT 9000 OVC007 01/M01 Q1016 GRN GRN TEMPO YLO
ETSN 211720Z 06002KT 9000 OVC008 01/M01 Q1017 GRN GRN
ETSN 211720Z 06002KT 9000 OVC008 01/M01 Q1017 GRN GRN

Airport on the map: